Wykagyl, New York
Current Conditions -  °F | °C
As of 1:56 AM on Friday 28 Nov 2014 (Local Time) from KHPN Reporting Station
Broken Clouds Broken Clouds  
Wind Chill: 23°   Ceiling: 900
Heat Index: 31°   Visibility: 10mi
Dew Point: 25°   Wind: 8mph
Humidity: 79%   Direction: 290°WNW
Pressure: 30.04"   Gusts: NA
Location:  40.95°N, 73.79°W
Report Text: KHPN 280656Z 29007KT 10SM BKN009 M01/M04 A3004 RMK AO2 SLP179 T10061039
Loading
Personal Weather Stations






























Interactive Weather Map New forecast layout! Learn more

10-Day Weather Forecast

Advertisements
Track Severe Weather on mobile